ESMT/HAD METAR and TAF weather

Enter ICAO airport designator
Station Type Date Time Source
ESMT METAR 2023/02/05 14:50 UTC NOAA

ESMT 051450Z AUTO 20003KT 2700 -SN SCT005/// BKN009/// 00/M00 Q1035


Station Type Date Time Source
ESMT Decoded METAR 2023/02/05 14:50 UTC NOAA

Halmstad Swedish Air Force Base , Sweden (ESMT) 56-41N 012-50E
Feb 05, 2023 - 09:50 AM EST / 2023.02.05 1450 UTC
Wind: from the SSW (200 degrees) at 3 MPH (3 KT):0
Visibility: 1 mile(s):0
Sky conditions: mostly cloudy
Weather: light snow
Temperature: 32 F (0 C)
Dew Point: 32 F (0 C)
Relative Humidity: 100%
Pressure (altimeter): 30.56 in. Hg (1035 hPa)
ob: ESMT 051450Z AUTO 20003KT 2700 -SN SCT005/// BKN009/// 00/M00 Q1035
cycle: 15

Station Type Date Time Source
ESMT TAF 2020/11/01 07:40 UTC NOAA

TAF
AMD ESMT 010733Z 0107/0121 16010KT 9999 BKN012
TEMPO 0107/0109 2800 RADZ BR BKN003
BECMG 0109/0112 SCT012

Example: see airport list